Time;durP1;ratioP1;P1;durP2;ratioP2;P2;SDS_P1;SDS_P2;PMS_P1;PMS_P2;Temp;Humidity;BMP_temperature;BMP_pressure;BME280_temperature;BME280_humidity;BME280_pressure;Samples;Min_cycle;Max_cycle;Signal;HPM_P1;HPM_P2
2021/11/12 00:13:26;;;;;;;9.80;6.25;;;;;;;;;;5114777;28;20509;-70
2021/11/12 00:15:54;;;;;;;8.38;5.43;;;;;;;;;;5114665;28;20463;-70
2021/11/12 00:18:22;;;;;;;8.48;5.70;;;;;;;;;;5096729;28;20084;-70
2021/11/12 00:20:48;;;;;;;10.20;6.40;;;;;;;;;;5115143;28;20471;-70
2021/11/12 00:23:15;;;;;;;8.82;5.93;;;;;;;;;;5096385;28;20394;-69
2021/11/12 00:25:42;;;;;;;9.90;6.03;;;;;;;;;;5114805;28;20028;-70
2021/11/12 00:28:08;;;;;;;8.23;5.63;;;;;;;;;;5115131;28;20015;-71
2021/11/12 00:33:24;;;;;;;9.02;5.10;;;;;;;;;;5114644;28;20020;-71
2021/11/12 00:38:26;;;;;;;9.10;5.57;;;;;;;;;;5094354;28;20043;-70
2021/11/12 00:41:10;;;;;;;9.30;6.35;;;;;;;;;;5094282;28;20024;-71
2021/11/12 00:43:43;;;;;;;8.55;5.60;;;;;;;;;;5094024;28;20016;-71
2021/11/12 00:48:47;;;;;;;10.50;6.47;;;;;;;;;;5094422;28;20161;-71
2021/11/12 00:56:28;;;;;;;11.05;5.85;;;;;;;;;;5093700;28;20032;-69
2021/11/12 00:58:56;;;;;;;10.88;5.65;;;;;;;;;;5093549;28;20455;-70
2021/11/12 01:01:23;;;;;;;8.20;5.40;;;;;;;;;;5093341;28;20029;-69
2021/11/12 01:03:49;;;;;;;9.77;5.68;;;;;;;;;;5093062;28;20378;-70
2021/11/12 01:06:15;;;;;;;8.95;5.95;;;;;;;;;;5093235;28;20093;-71
2021/11/12 01:08:42;;;;;;;8.75;5.18;;;;;;;;;;5093461;28;20055;-71
2021/11/12 01:11:10;;;;;;;9.23;5.47;;;;;;;;;;5093240;28;20024;-73
2021/11/12 01:13:36;;;;;;;9.20;5.72;;;;;;;;;;5093066;28;20016;-72
2021/11/12 01:16:03;;;;;;;9.52;5.78;;;;;;;;;;5092251;28;20383;-71
2021/11/12 01:18:29;;;;;;;9.82;5.72;;;;;;;;;;5093131;28;20016;-67
2021/11/12 01:20:55;;;;;;;10.77;5.10;;;;;;;;;;5093022;28;20020;-69
2021/11/12 01:23:21;;;;;;;9.90;5.80;;;;;;;;;;5092900;28;20024;-69
2021/11/12 01:25:47;;;;;;;17.25;6.07;;;;;;;;;;5092817;28;20519;-69
2021/11/12 01:28:13;;;;;;;13.40;5.57;;;;;;;;;;5093034;28;20020;-71
2021/11/12 01:30:40;;;;;;;17.23;5.78;;;;;;;;;;5093068;28;20068;-70
2021/11/12 01:33:06;;;;;;;13.75;6.28;;;;;;;;;;5093064;28;20024;-70
2021/11/12 01:35:33;;;;;;;10.60;5.50;;;;;;;;;;5097462;28;20051;-71
2021/11/12 01:38:00;;;;;;;10.80;6.05;;;;;;;;;;5095058;28;20019;-71
2021/11/12 01:40:27;;;;;;;13.68;5.57;;;;;;;;;;5113220;28;20462;-70
2021/11/12 01:43:17;;;;;;;12.48;6.57;;;;;;;;;;5113468;28;20004;-71
2021/11/12 01:45:52;;;;;;;9.23;5.68;;;;;;;;;;5113052;28;20142;-72
2021/11/12 01:59:07;;;;;;;9.68;5.35;;;;;;;;;;5113238;28;20047;-71
2021/11/12 02:01:46;;;;;;;8.90;5.20;;;;;;;;;;5094627;28;20443;-72
2021/11/12 02:04:14;;;;;;;11.45;5.80;;;;;;;;;;5094649;28;20080;-72
2021/11/12 02:06:41;;;;;;;9.00;5.03;;;;;;;;;;5112892;28;20024;-71
2021/11/12 02:09:27;;;;;;;11.45;5.70;;;;;;;;;;5097738;28;20054;-71
2021/11/12 02:11:54;;;;;;;8.80;5.22;;;;;;;;;;5092534;28;20043;-72
2021/11/12 02:14:22;;;;;;;8.88;5.30;;;;;;;;;;5095406;28;20040;-71
2021/11/12 02:16:57;;;;;;;7.47;4.90;;;;;;;;;;5092185;28;20024;-71
2021/11/12 02:19:24;;;;;;;8.50;5.28;;;;;;;;;;5092274;28;20016;-69
2021/11/12 02:22:01;;;;;;;7.65;5.18;;;;;;;;;;5074296;28;20055;-70
2021/11/12 02:24:27;;;;;;;10.38;5.53;;;;;;;;;;5092580;28;20472;-69
2021/11/12 02:26:57;;;;;;;7.72;4.75;;;;;;;;;;5092267;28;20020;-70
2021/11/12 02:29:26;;;;;;;8.02;5.60;;;;;;;;;;5092451;28;20479;-69
2021/11/12 02:31:53;;;;;;;8.35;5.03;;;;;;;;;;5092508;28;20028;-69
2021/11/12 02:34:19;;;;;;;8.27;5.10;;;;;;;;;;5092256;28;20644;-71
2021/11/12 02:36:47;;;;;;;7.50;5.00;;;;;;;;;;5074129;28;20052;-70
2021/11/12 02:39:14;;;;;;;7.93;4.40;;;;;;;;;;5092274;28;20107;-71
2021/11/12 02:41:41;;;;;;;7.95;4.88;;;;;;;;;;5091644;28;20502;-70
2021/11/12 02:44:08;;;;;;;9.05;5.03;;;;;;;;;;5073535;28;20046;-70
2021/11/12 02:46:34;;;;;;;7.78;5.03;;;;;;;;;;5091870;28;20047;-71
2021/11/12 02:49:01;;;;;;;7.95;5.13;;;;;;;;;;5091917;28;20099;-71
2021/11/12 02:51:29;;;;;;;10.10;4.97;;;;;;;;;;5092167;28;20490;-71
2021/11/12 02:53:57;;;;;;;6.95;4.72;;;;;;;;;;5091671;28;20095;-71
2021/11/12 02:56:28;;;;;;;10.50;4.80;;;;;;;;;;5091861;28;20479;-71
2021/11/12 02:58:57;;;;;;;6.65;4.20;;;;;;;;;;5091761;28;20013;-71
2021/11/12 03:01:25;;;;;;;8.30;4.90;;;;;;;;;;5095095;28;20107;-70
2021/11/12 03:03:52;;;;;;;8.13;4.95;;;;;;;;;;5090255;28;20020;-70
2021/11/12 03:06:19;;;;;;;9.98;5.15;;;;;;;;;;5092144;28;20466;-71
2021/11/12 03:08:45;;;;;;;7.50;4.50;;;;;;;;;;5091942;28;20103;-71
2021/11/12 03:11:11;;;;;;;8.07;4.40;;;;;;;;;;5073886;28;20368;-72
2021/11/12 03:13:38;;;;;;;8.70;5.10;;;;;;;;;;5091657;28;20024;-72
2021/11/12 03:16:05;;;;;;;11.50;4.93;;;;;;;;;;5073479;28;20039;-70
2021/11/12 03:18:32;;;;;;;7.32;4.55;;;;;;;;;;5091644;28;20027;-70
2021/11/12 03:21:00;;;;;;;6.85;4.50;;;;;;;;;;5091805;28;20074;-71
2021/11/12 03:23:32;;;;;;;7.43;4.40;;;;;;;;;;5073532;28;20495;-70
2021/11/12 04:03:56;;;;;;;8.55;4.55;;;;;;;;;;5094828;28;20035;-68
2021/11/12 04:17:37;;;;;;;8.13;4.63;;;;;;;;;;5094075;28;20043;-69
2021/11/12 05:56:42;;;;;;;10.93;3.90;;;;;;;;;;5112797;28;20050;-69
2021/11/12 05:59:10;;;;;;;9.57;3.75;;;;;;;;;;5094225;28;20026;-68
2021/11/12 06:01:36;;;;;;;18.00;4.50;;;;;;;;;;5111886;28;20478;-69
2021/11/12 06:04:04;;;;;;;7.15;3.97;;;;;;;;;;5110105;28;20625;-69
2021/11/12 06:06:30;;;;;;;10.13;4.38;;;;;;;;;;5074947;28;20074;-70
2021/11/12 06:08:56;;;;;;;7.20;4.05;;;;;;;;;;5092045;28;20052;-70
2021/11/12 06:11:23;;;;;;;9.48;3.53;;;;;;;;;;5092048;28;20105;-69
2021/11/12 06:13:50;;;;;;;8.70;3.50;;;;;;;;;;5092190;28;20015;-69
2021/11/12 06:16:16;;;;;;;11.07;4.10;;;;;;;;;;5073460;28;20537;-70
2021/11/12 06:18:42;;;;;;;8.25;4.60;;;;;;;;;;5091805;28;20103;-69
2021/11/12 06:21:11;;;;;;;18.90;5.35;;;;;;;;;;5092037;28;20043;-69
2021/11/12 06:23:37;;;;;;;13.95;4.40;;;;;;;;;;5091812;28;20017;-69
2021/11/12 06:26:03;;;;;;;9.90;4.30;;;;;;;;;;5073748;28;20474;-69
2021/11/12 06:28:29;;;;;;;13.10;4.78;;;;;;;;;;5091826;28;20016;-69
2021/11/12 06:30:56;;;;;;;12.43;4.72;;;;;;;;;;5091800;28;20024;-70
2021/11/12 06:33:23;;;;;;;8.10;4.38;;;;;;;;;;5091601;28;20547;-70
2021/11/12 06:35:49;;;;;;;8.27;3.80;;;;;;;;;;5091283;28;20052;-69
2021/11/12 06:38:19;;;;;;;9.35;4.43;;;;;;;;;;5091671;28;20379;-69
2021/11/12 06:40:45;;;;;;;8.68;4.00;;;;;;;;;;5091684;28;20016;-70
2021/11/12 06:51:16;;;;;;;7.88;4.72;;;;;;;;;;5092045;28;20054;-69
2021/11/12 06:53:42;;;;;;;8.07;4.40;;;;;;;;;;5073406;28;20064;-69
2021/11/12 06:56:08;;;;;;;6.57;3.60;;;;;;;;;;5091355;28;20032;-69
2021/11/12 06:58:38;;;;;;;10.32;4.32;;;;;;;;;;5091856;28;20392;-69
2021/11/12 07:01:04;;;;;;;11.40;4.38;;;;;;;;;;5073198;28;20027;-69
2021/11/12 07:03:32;;;;;;;8.73;3.83;;;;;;;;;;5091406;28;20609;-70
2021/11/12 07:05:58;;;;;;;8.80;4.32;;;;;;;;;;5091663;28;20016;-69
2021/11/12 07:08:24;;;;;;;10.63;4.22;;;;;;;;;;5091386;28;20020;-69
2021/11/12 07:10:52;;;;;;;12.38;3.75;;;;;;;;;;5091441;28;20356;-69
2021/11/12 07:13:24;;;;;;;6.80;3.95;;;;;;;;;;5076450;28;20028;-69
2021/11/12 07:15:50;;;;;;;7.38;4.38;;;;;;;;;;5095448;28;20024;-69
2021/11/12 07:18:16;;;;;;;8.68;3.78;;;;;;;;;;5095343;28;20023;-69
2021/11/12 07:20:42;;;;;;;6.28;3.80;;;;;;;;;;5076970;28;20024;-69
2021/11/12 07:23:09;;;;;;;10.00;3.60;;;;;;;;;;5095311;28;20049;-69
2021/11/12 07:25:35;;;;;;;8.23;3.85;;;;;;;;;;5095171;28;20033;-69
2021/11/12 07:28:01;;;;;;;8.68;3.85;;;;;;;;;;5095215;28;20057;-69
2021/11/12 07:30:27;;;;;;;7.40;3.83;;;;;;;;;;5094927;28;20024;-69
2021/11/12 07:32:54;;;;;;;6.93;3.70;;;;;;;;;;5094910;28;20073;-70
2021/11/12 07:35:25;;;;;;;8.48;4.07;;;;;;;;;;5094645;28;20067;-69
2021/11/12 07:37:57;;;;;;;12.85;3.85;;;;;;;;;;5094850;28;20024;-68
2021/11/12 07:40:30;;;;;;;12.50;4.13;;;;;;;;;;5094811;28;20023;-68
2021/11/12 07:48:18;;;;;;;7.65;4.13;;;;;;;;;;5039079;28;20055;-69
2021/11/12 07:50:44;;;;;;;6.88;4.22;;;;;;;;;;5094990;28;20035;-70
2021/11/12 07:53:10;;;;;;;9.02;4.28;;;;;;;;;;5095172;28;20024;-71
2021/11/12 07:55:36;;;;;;;6.25;3.97;;;;;;;;;;5095198;28;20036;-70
2021/11/12 07:58:03;;;;;;;6.90;4.40;;;;;;;;;;5095409;28;20024;-70
2021/11/12 08:00:29;;;;;;;7.50;4.10;;;;;;;;;;5095036;28;20024;-71
2021/11/12 08:02:55;;;;;;;7.93;4.57;;;;;;;;;;5095086;28;20016;-71
2021/11/12 08:05:26;;;;;;;6.97;4.40;;;;;;;;;;5076763;28;20020;-71
2021/11/12 08:07:55;;;;;;;9.40;4.75;;;;;;;;;;5077823;28;20024;-71
2021/11/12 08:10:23;;;;;;;8.80;4.63;;;;;;;;;;5095011;28;20028;-71
2021/11/12 08:13:04;;;;;;;8.25;5.22;;;;;;;;;;5076930;28;20028;-71
2021/11/12 08:20:39;;;;;;;9.43;4.72;;;;;;;;;;5095091;28;20028;-72
2021/11/12 08:26:28;;;;;;;9.63;4.72;;;;;;;;;;5063337;28;20429;-72
2021/11/12 08:42:05;;;;;;;8.88;5.40;;;;;;;;;;5094628;28;20574;-70
2021/11/12 08:44:39;;;;;;;9.50;5.50;;;;;;;;;;5093904;28;20027;-69
2021/11/12 08:47:13;;;;;;;10.85;5.65;;;;;;;;;;5075915;28;20027;-69
2021/11/12 08:49:41;;;;;;;10.18;5.30;;;;;;;;;;5094135;28;20024;-70
2021/11/12 08:52:09;;;;;;;7.13;4.65;;;;;;;;;;5093974;28;20640;-69
2021/11/12 08:54:37;;;;;;;7.68;4.93;;;;;;;;;;5093894;28;20028;-72
2021/11/12 08:57:11;;;;;;;8.73;5.10;;;;;;;;;;5075689;28;20062;-68
2021/11/12 08:59:39;;;;;;;9.23;5.20;;;;;;;;;;5094151;28;20399;-68
2021/11/12 09:02:08;;;;;;;14.77;5.20;;;;;;;;;;5093720;28;20031;-69
2021/11/12 09:04:34;;;;;;;14.95;5.80;;;;;;;;;;5093808;28;20106;-70
2021/11/12 09:07:00;;;;;;;13.88;5.32;;;;;;;;;;5093886;28;20498;-70
2021/11/12 09:09:27;;;;;;;12.63;5.35;;;;;;;;;;5093988;28;20544;-71
2021/11/12 09:11:54;;;;;;;9.20;5.15;;;;;;;;;;5093782;28;20050;-71
2021/11/12 09:14:23;;;;;;;7.45;4.78;;;;;;;;;;5093904;28;20016;-70
2021/11/12 09:16:50;;;;;;;15.18;6.18;;;;;;;;;;5075341;28;20032;-70
2021/11/12 09:19:16;;;;;;;8.20;5.03;;;;;;;;;;5075463;28;20475;-70
2021/11/12 09:21:44;;;;;;;8.00;4.60;;;;;;;;;;5075192;28;20032;-70
2021/11/12 09:24:10;;;;;;;11.98;5.75;;;;;;;;;;5093812;28;20020;-71
2021/11/12 09:26:36;;;;;;;10.80;5.78;;;;;;;;;;5093514;28;20027;-71
2021/11/12 09:29:07;;;;;;;8.30;5.57;;;;;;;;;;5093520;28;20027;-69
2021/11/12 09:31:33;;;;;;;10.50;5.43;;;;;;;;;;5074915;28;20390;-71
2021/11/12 09:34:00;;;;;;;9.73;5.63;;;;;;;;;;5093336;28;20020;-69
2021/11/12 09:36:26;;;;;;;8.70;4.75;;;;;;;;;;5092046;28;20056;-69
2021/11/12 09:38:52;;;;;;;10.18;5.18;;;;;;;;;;5093005;28;20019;-70
2021/11/12 09:41:18;;;;;;;10.40;5.10;;;;;;;;;;5093164;28;20024;-69
2021/11/12 09:43:47;;;;;;;11.30;5.25;;;;;;;;;;5093161;28;20046;-70
2021/11/12 09:46:13;;;;;;;9.00;5.57;;;;;;;;;;5093420;28;20022;-71
2021/11/12 09:48:40;;;;;;;8.77;4.72;;;;;;;;;;5074878;28;20434;-71
2021/11/12 09:51:07;;;;;;;7.35;4.35;;;;;;;;;;5092897;28;20552;-71
2021/11/12 09:53:33;;;;;;;9.93;5.00;;;;;;;;;;5074967;28;20360;-69
2021/11/12 09:55:59;;;;;;;8.60;5.00;;;;;;;;;;5092817;28;20035;-68
2021/11/12 09:58:25;;;;;;;11.65;5.57;;;;;;;;;;5092944;28;20024;-68
2021/11/12 10:00:59;;;;;;;13.93;5.57;;;;;;;;;;5074551;28;20122;-69
2021/11/12 10:03:33;;;;;;;10.23;5.28;;;;;;;;;;5092550;28;20020;-68
2021/11/12 10:06:00;;;;;;;9.25;5.38;;;;;;;;;;5092214;28;20093;-69
2021/11/12 10:08:37;;;;;;;8.00;4.85;;;;;;;;;;5092057;28;20461;-69
2021/11/12 10:11:04;;;;;;;11.35;5.43;;;;;;;;;;5092102;28;20047;-69
2021/11/12 10:13:33;;;;;;;15.20;9.00;;;;;;;;;;5092130;28;20016;-69
2021/11/12 10:16:24;;;;;;;12.13;6.43;;;;;;;;;;5091995;28;20028;-70
2021/11/12 10:19:08;;;;;;;10.10;5.90;;;;;;;;;;5089947;28;20019;-69
2021/11/12 10:21:34;;;;;;;13.10;6.18;;;;;;;;;;5091500;28;20441;-69
2021/11/12 10:24:05;;;;;;;10.65;5.97;;;;;;;;;;5112230;28;20490;-69
2021/11/12 10:26:32;;;;;;;10.27;6.40;;;;;;;;;;5112107;28;20027;-70
2021/11/12 10:29:03;;;;;;;10.68;6.38;;;;;;;;;;5112287;28;20071;-69
2021/11/12 10:31:30;;;;;;;11.88;6.45;;;;;;;;;;5112110;28;20035;-69
2021/11/12 10:33:57;;;;;;;10.02;5.72;;;;;;;;;;5111953;28;20106;-70
2021/11/12 10:36:23;;;;;;;12.43;6.40;;;;;;;;;;5093486;28;20054;-70
2021/11/12 10:38:49;;;;;;;13.15;5.40;;;;;;;;;;5112174;28;20026;-70
2021/11/12 10:41:17;;;;;;;10.18;6.00;;;;;;;;;;5112067;28;20024;-70
2021/11/12 10:43:43;;;;;;;11.55;5.85;;;;;;;;;;5111957;28;20016;-70
2021/11/12 10:46:09;;;;;;;12.27;6.13;;;;;;;;;;5112003;28;20024;-70
2021/11/12 10:48:36;;;;;;;8.80;5.43;;;;;;;;;;5093681;28;20028;-69
2021/11/12 10:51:15;;;;;;;8.05;5.25;;;;;;;;;;5112162;28;20020;-70
2021/11/12 10:53:46;;;;;;;7.60;4.85;;;;;;;;;;5112036;28;20028;-70
2021/11/12 10:56:12;;;;;;;10.35;5.45;;;;;;;;;;5111672;28;20062;-69
2021/11/12 10:58:56;;;;;;;13.90;5.30;;;;;;;;;;5093652;28;20020;-70
2021/11/12 11:01:33;;;;;;;8.93;5.32;;;;;;;;;;5111728;28;20032;-69
2021/11/12 11:04:26;;;;;;;8.68;4.72;;;;;;;;;;5112028;28;20023;-69
2021/11/12 11:06:53;;;;;;;12.13;5.78;;;;;;;;;;5108479;28;20127;-69
2021/11/12 11:09:20;;;;;;;10.30;5.20;;;;;;;;;;5093503;28;20023;-70
2021/11/12 11:11:47;;;;;;;9.18;4.85;;;;;;;;;;5111827;28;20030;-70
2021/11/12 11:14:32;;;;;;;11.77;5.50;;;;;;;;;;5111297;28;20022;-69
2021/11/12 11:17:17;;;;;;;9.40;5.57;;;;;;;;;;5092308;28;20043;-69
2021/11/12 11:19:43;;;;;;;7.35;4.68;;;;;;;;;;5111105;28;20106;-70
2021/11/12 11:22:14;;;;;;;7.97;4.60;;;;;;;;;;5111490;28;20018;-69
2021/11/12 11:24:40;;;;;;;8.45;4.88;;;;;;;;;;5111659;28;20024;-70
2021/11/12 11:27:06;;;;;;;8.30;4.93;;;;;;;;;;5111906;28;20058;-69
2021/11/12 11:29:32;;;;;;;15.02;5.60;;;;;;;;;;5111571;28;20036;-69
2021/11/12 11:31:59;;;;;;;11.77;4.80;;;;;;;;;;5111774;28;20020;-69
2021/11/12 11:34:28;;;;;;;17.27;5.60;;;;;;;;;;5093776;28;20019;-69
2021/11/12 11:37:00;;;;;;;10.25;4.97;;;;;;;;;;5093834;28;20051;-69
2021/11/12 11:39:26;;;;;;;8.00;5.13;;;;;;;;;;5112227;28;20073;-70
2021/11/12 11:41:52;;;;;;;15.30;4.93;;;;;;;;;;5093131;28;20296;-70
2021/11/12 11:44:19;;;;;;;10.57;5.45;;;;;;;;;;5092788;28;20024;-70
2021/11/12 11:46:49;;;;;;;7.13;4.55;;;;;;;;;;5111354;28;20027;-69
2021/11/12 11:49:17;;;;;;;7.32;4.32;;;;;;;;;;5093507;28;20368;-69
2021/11/12 11:52:00;;;;;;;7.70;4.15;;;;;;;;;;5111789;28;20031;-70
2021/11/12 11:54:26;;;;;;;;;;;;;;;;;;5092564;28;20031;-71
2021/11/12 11:56:54;;;;;;;7.50;4.25;;;;;;;;;;5111550;28;20363;-69
2021/11/12 11:59:24;;;;;;;7.78;4.55;;;;;;;;;;5093840;28;20058;-69
2021/11/12 12:01:51;;;;;;;8.75;4.43;;;;;;;;;;5094870;28;20035;-70
2021/11/12 12:04:17;;;;;;;8.75;4.40;;;;;;;;;;5094437;28;20020;-70
2021/11/12 12:07:02;;;;;;;7.65;3.95;;;;;;;;;;5094615;28;20020;-69
2021/11/12 12:09:44;;;;;;;7.78;4.30;;;;;;;;;;5101891;28;20092;-70
2021/11/12 12:12:11;;;;;;;7.10;4.20;;;;;;;;;;5113973;28;20030;-69
2021/11/12 12:14:37;;;;;;;7.82;4.22;;;;;;;;;;5115332;28;20475;-69
2021/11/12 12:17:10;;;;;;;10.90;4.53;;;;;;;;;;5096774;28;20038;-69
2021/11/12 12:19:45;;;;;;;10.13;5.38;;;;;;;;;;5115217;28;20016;-69
2021/11/12 12:30:51;;;;;;;11.95;4.78;;;;;;;;;;5115399;28;20069;-70
2021/11/12 13:21:33;;;;;;;7.68;4.13;;;;;;;;;;5101970;28;20035;-70
2021/11/12 13:24:17;;;;;;;13.55;4.57;;;;;;;;;;5109640;28;20469;-71
2021/11/12 13:26:56;;;;;;;22.52;5.38;;;;;;;;;;5093232;28;20047;-71
2021/11/12 13:29:22;;;;;;;18.38;4.80;;;;;;;;;;5075107;28;20058;-70
2021/11/12 13:31:57;;;;;;;11.88;4.50;;;;;;;;;;5093147;28;20024;-71
2021/11/12 13:34:24;;;;;;;9.80;5.13;;;;;;;;;;5109534;28;20031;-71
2021/11/12 13:36:50;;;;;;;52.22;24.40;;;;;;;;;;5113376;28;20047;-70
2021/11/12 13:39:18;;;;;;;41.53;23.33;;;;;;;;;;5113652;28;20024;-70
2021/11/12 13:41:45;;;;;;;36.63;16.60;;;;;;;;;;5113186;28;20019;-70
2021/11/12 13:44:19;;;;;;;25.55;13.77;;;;;;;;;;5113499;28;20020;-70
2021/11/12 13:46:45;;;;;;;29.65;12.88;;;;;;;;;;5113320;28;20031;-71
2021/11/12 13:49:23;;;;;;;26.33;13.27;;;;;;;;;;5109316;28;20482;-71
2021/11/12 13:51:49;;;;;;;22.40;11.70;;;;;;;;;;5100073;28;20042;-70
2021/11/12 13:54:15;;;;;;;26.35;12.18;;;;;;;;;;5105581;28;20520;-70
2021/11/12 13:56:41;;;;;;;25.77;10.95;;;;;;;;;;5110087;28;20386;-70
2021/11/12 13:59:09;;;;;;;26.50;10.85;;;;;;;;;;5095582;28;20499;-70
2021/11/12 14:01:35;;;;;;;21.63;10.40;;;;;;;;;;5111395;28;20020;-70
2021/11/12 14:04:02;;;;;;;24.35;10.73;;;;;;;;;;5094335;28;20030;-69
2021/11/12 14:06:36;;;;;;;20.15;9.80;;;;;;;;;;5112577;28;20034;-70
2021/11/12 14:09:04;;;;;;;19.42;8.80;;;;;;;;;;5110108;28;20023;-70
2021/11/12 14:11:31;;;;;;;23.88;9.43;;;;;;;;;;5076760;28;20488;-69
2021/11/12 14:13:59;;;;;;;20.38;8.98;;;;;;;;;;5088611;28;20402;-70
2021/11/12 14:19:40;;;;;;;21.30;8.30;;;;;;;;;;5112434;28;20110;-70
2021/11/12 14:24:54;;;;;;;13.73;7.07;;;;;;;;;;5111058;28;20356;-70
2021/11/12 14:27:43;;;;;;;14.60;7.22;;;;;;;;;;5097839;28;20524;-70
2021/11/12 14:38:28;;;;;;;16.60;6.85;;;;;;;;;;5110633;28;20067;-69
2021/11/12 14:46:15;;;;;;;11.85;5.80;;;;;;;;;;5098999;28;20043;-69
2021/11/12 14:51:40;;;;;;;22.25;6.78;;;;;;;;;;5059212;28;20081;-69
2021/11/12 14:54:09;;;;;;;18.25;6.60;;;;;;;;;;5089406;28;20028;-69
2021/11/12 14:56:35;;;;;;;15.35;6.45;;;;;;;;;;5094850;28;20081;-69
2021/11/12 14:59:05;;;;;;;14.10;5.80;;;;;;;;;;5111486;28;20428;-69
2021/11/12 15:01:33;;;;;;;13.30;5.35;;;;;;;;;;5111457;28;20077;-69
2021/11/12 15:03:59;;;;;;;11.68;5.65;;;;;;;;;;5111009;28;20051;-69
2021/11/12 15:06:26;;;;;;;21.80;6.57;;;;;;;;;;5093291;28;20111;-69
2021/11/12 15:08:55;;;;;;;15.15;5.07;;;;;;;;;;5093170;28;20026;-69
2021/11/12 15:11:24;;;;;;;15.32;6.70;;;;;;;;;;5092818;28;20035;-69
2021/11/12 15:13:53;;;;;;;13.48;6.03;;;;;;;;;;5093250;28;20035;-69
2021/11/12 15:16:24;;;;;;;11.55;5.38;;;;;;;;;;5111345;28;20034;-70
2021/11/12 15:18:53;;;;;;;16.02;5.75;;;;;;;;;;5108902;28;20114;-69
2021/11/12 15:21:32;;;;;;;14.80;5.50;;;;;;;;;;5100368;28;20493;-69
2021/11/12 15:29:09;;;;;;;15.60;5.10;;;;;;;;;;5091811;28;20025;-69
2021/11/12 15:34:07;;;;;;;14.40;5.15;;;;;;;;;;5092927;28;20077;-68
2021/11/12 15:36:34;;;;;;;9.63;4.90;;;;;;;;;;5076132;28;20052;-68
2021/11/12 15:39:13;;;;;;;18.20;5.63;;;;;;;;;;5094476;28;20042;-68
2021/11/12 15:44:19;;;;;;;17.48;5.80;;;;;;;;;;5095371;28;20025;-68
2021/11/12 15:46:48;;;;;;;15.68;5.15;;;;;;;;;;5095144;28;20027;-68
2021/11/12 15:49:24;;;;;;;13.07;5.38;;;;;;;;;;5095318;28;20023;-68
2021/11/12 15:51:56;;;;;;;12.00;4.57;;;;;;;;;;5095128;28;20026;-68
2021/11/12 16:02:26;;;;;;;9.83;5.23;;;;;;;;;;5095137;28;20028;-68
2021/11/12 16:25:21;;;;;;;8.88;4.53;;;;;;;;;;5094716;28;20028;-68
2021/11/12 16:27:50;;;;;;;11.43;5.25;;;;;;;;;;5094882;28;20406;-68
2021/11/12 16:30:19;;;;;;;12.68;5.60;;;;;;;;;;5076275;28;20479;-68
2021/11/12 16:32:50;;;;;;;8.75;5.32;;;;;;;;;;5094534;28;20032;-68
2021/11/12 16:35:20;;;;;;;10.05;5.22;;;;;;;;;;5076170;28;20110;-68
2021/11/12 16:37:48;;;;;;;10.82;5.03;;;;;;;;;;5094293;28;20057;-69
2021/11/12 16:42:48;;;;;;;10.43;4.93;;;;;;;;;;5094489;28;20081;-68
2021/11/12 16:56:03;;;;;;;10.48;4.93;;;;;;;;;;5093957;28;20429;-68
2021/11/12 17:04:09;;;;;;;12.27;5.35;;;;;;;;;;5068142;28;20050;-68
2021/11/12 17:06:49;;;;;;;10.95;5.28;;;;;;;;;;5093851;28;20065;-68
2021/11/12 17:14:52;;;;;;;8.52;4.80;;;;;;;;;;5094168;28;20032;-68
2021/11/12 17:17:44;;;;;;;22.98;5.25;;;;;;;;;;5091231;28;20032;-68
2021/11/12 17:47:48;;;;;;;13.43;5.78;;;;;;;;;;5113320;28;20111;-68
2021/11/12 17:50:25;;;;;;;12.23;5.60;;;;;;;;;;5113139;28;20099;-68
2021/11/12 18:04:01;;;;;;;18.92;5.40;;;;;;;;;;5093115;28;20039;-69
2021/11/12 18:06:33;;;;;;;17.33;6.45;;;;;;;;;;5092639;28;20061;-69
2021/11/12 18:22:12;;;;;;;12.45;6.47;;;;;;;;;;5112723;28;20091;-72
2021/11/12 21:46:45;;;;;;;12.55;7.55;;;;;;;;;;5092856;28;20021;-68
2021/11/12 21:49:11;;;;;;;14.52;8.05;;;;;;;;;;5083453;28;20046;-73
2021/11/12 21:51:41;;;;;;;15.40;8.98;;;;;;;;;;5094474;28;20030;-74
2021/11/12 21:54:08;;;;;;;13.18;8.02;;;;;;;;;;5093383;28;20100;-74
2021/11/12 21:56:34;;;;;;;15.15;8.73;;;;;;;;;;5094892;28;20046;-74
2021/11/12 21:59:00;;;;;;;16.05;8.90;;;;;;;;;;5104217;28;20093;-68
2021/11/12 22:01:27;;;;;;;17.50;8.75;;;;;;;;;;5089353;28;20019;-74
2021/11/12 22:03:54;;;;;;;14.82;8.88;;;;;;;;;;5090307;28;20023;-73
2021/11/12 22:06:20;;;;;;;15.00;8.60;;;;;;;;;;5073009;28;20115;-70
2021/11/12 22:08:46;;;;;;;21.58;9.32;;;;;;;;;;5106821;28;20015;-66
2021/11/12 22:11:13;;;;;;;20.02;9.82;;;;;;;;;;5072807;28;20089;-74
2021/11/12 22:13:40;;;;;;;22.02;11.20;;;;;;;;;;5091262;28;20467;-77
2021/11/12 22:16:07;;;;;;;19.98;10.25;;;;;;;;;;5074707;28;20028;-77
2021/11/12 22:18:33;;;;;;;17.55;9.90;;;;;;;;;;5093582;28;20072;-67
2021/11/12 22:20:59;;;;;;;29.65;10.57;;;;;;;;;;5098835;28;20023;-70
2021/11/12 22:23:27;;;;;;;20.33;11.18;;;;;;;;;;5111801;28;20382;-71
2021/11/12 22:25:54;;;;;;;23.83;10.10;;;;;;;;;;5092121;28;20024;-74
2021/11/12 22:28:20;;;;;;;16.67;9.93;;;;;;;;;;5112041;28;20023;-70
2021/11/12 22:30:46;;;;;;;22.10;12.25;;;;;;;;;;5111667;28;20157;-66
2021/11/12 22:33:13;;;;;;;18.27;11.10;;;;;;;;;;5081066;28;20477;-74
2021/11/12 22:35:40;;;;;;;21.33;11.40;;;;;;;;;;5090994;28;20052;-72
2021/11/12 22:38:07;;;;;;;19.92;12.73;;;;;;;;;;5093973;28;20399;-76
2021/11/12 22:40:33;;;;;;;20.35;11.13;;;;;;;;;;5111169;28;20538;-75
2021/11/12 22:42:59;;;;;;;20.00;11.43;;;;;;;;;;5090998;28;20020;-73
2021/11/12 22:45:25;;;;;;;22.50;11.75;;;;;;;;;;5090867;28;20401;-72
2021/11/12 22:47:52;;;;;;;20.88;12.48;;;;;;;;;;5073045;28;20115;-73
2021/11/12 22:50:18;;;;;;;21.38;11.98;;;;;;;;;;5072507;28;20096;-72
2021/11/12 22:52:45;;;;;;;20.90;11.35;;;;;;;;;;5093317;28;20028;-72
2021/11/12 22:55:11;;;;;;;20.83;12.90;;;;;;;;;;5111126;28;20023;-72
2021/11/12 22:57:37;;;;;;;22.90;13.85;;;;;;;;;;5092487;28;20489;-72
2021/11/12 23:00:05;;;;;;;22.02;13.73;;;;;;;;;;5072753;28;20032;-71
2021/11/12 23:02:31;;;;;;;24.38;15.23;;;;;;;;;;5091065;28;20099;-74
2021/11/12 23:04:57;;;;;;;28.23;15.50;;;;;;;;;;5091260;28;20027;-72
2021/11/12 23:07:23;;;;;;;30.33;16.35;;;;;;;;;;5091078;28;20028;-72
2021/11/12 23:09:50;;;;;;;24.60;15.88;;;;;;;;;;5090832;28;20048;-74
2021/11/12 23:12:16;;;;;;;26.80;16.70;;;;;;;;;;5072658;28;20043;-72
2021/11/12 23:14:42;;;;;;;30.27;18.00;;;;;;;;;;5093937;28;20031;-74
2021/11/12 23:17:09;;;;;;;27.13;17.00;;;;;;;;;;5091005;28;20089;-74
2021/11/12 23:19:35;;;;;;;26.17;17.02;;;;;;;;;;5110853;28;20424;-73
2021/11/12 23:22:01;;;;;;;27.40;17.10;;;;;;;;;;5111177;28;20026;-73
2021/11/12 23:24:27;;;;;;;25.67;16.90;;;;;;;;;;5111150;28;20066;-74
2021/11/12 23:26:53;;;;;;;25.67;17.05;;;;;;;;;;5111476;28;20020;-74
2021/11/12 23:29:19;;;;;;;25.38;16.70;;;;;;;;;;5111442;28;20670;-77
2021/11/12 23:31:45;;;;;;;27.58;16.52;;;;;;;;;;5110040;28;20035;-74
2021/11/12 23:34:11;;;;;;;27.88;18.40;;;;;;;;;;5090835;28;20017;-75
2021/11/12 23:36:37;;;;;;;25.30;16.95;;;;;;;;;;5099943;28;20047;-76
2021/11/12 23:39:04;;;;;;;24.45;17.38;;;;;;;;;;5111316;28;20055;-72
2021/11/12 23:41:30;;;;;;;24.88;17.05;;;;;;;;;;5109990;28;20024;-76
2021/11/12 23:43:56;;;;;;;26.80;17.60;;;;;;;;;;5111157;28;20023;-69
2021/11/12 23:46:22;;;;;;;24.90;16.55;;;;;;;;;;5111144;28;20110;-75
2021/11/12 23:48:49;;;;;;;27.92;18.20;;;;;;;;;;5109238;28;20020;-76
2021/11/12 23:51:15;;;;;;;25.27;17.10;;;;;;;;;;5090419;28;20024;-75
2021/11/12 23:53:41;;;;;;;24.33;16.83;;;;;;;;;;5101228;28;20537;-74
2021/11/12 23:56:07;;;;;;;24.83;16.95;;;;;;;;;;5112837;28;20063;-75
2021/11/12 23:58:33;;;;;;;25.80;17.17;;;;;;;;;;5114485;28;20026;-71
